Data for 08/30/2006

Time Sea-Level Adjusted Pressure Absolute Pressure Temperature Relative Humidity Dew Point   
(mb) (inHg) (mb) (inHg) (C) (F) (%) (C) (F)
00:05 1011 29.85 840 24.81 23.4 74.2 15 -4.8 23.4
00:10 1011 29.85 840 24.81 23.4 74.1 15 -4.5 23.9
00:15 1011 29.85 840 24.81 23.3 73.9 15 -4.4 24
00:20 1011 29.85 840 24.81 23 73.5 16 -4.2 24.4
00:25 1011 29.85 840 24.81 22.6 72.7 17 -3.9 25
00:30 1011 29.85 840 24.81 22.3 72.1 17 -3.7 25.3
00:35 1011 29.85 840 24.81 22.2 71.9 16 -4.4 24.2
00:40 1011 29.85 840 24.81 22.6 72.6 15 -5.1 22.8
00:45 1011 29.85 840 24.81 22.8 73 16 -4.3 24.3
00:50 1011 29.85 840 24.81 22.5 72.5 16 -4.6 23.8
00:55 1011 29.85 840 24.81 22.4 72.2 16 -4.5 23.9
01:00 1011 29.85 840 24.81 22.3 72.1 16 -4.3 24.2
01:05 1011 29.85 840 24.81 21.8 71.2 18 -3.2 26.3
01:10 1011 29.85 840 24.81 21.4 70.6 19 -2.7 27.2
01:15 1011 29.85 840 24.81 21.4 70.4 18 -4.1 24.7
01:20 1011 29.85 840 24.81 21.5 70.8 19 -2.6 27.3
01:25 1011 29.85 840 24.81 21 69.8 20 -2.4 27.6
01:30 1011 29.85 840 24.81 20.1 68.2 21 -2.8 26.9
01:35 1011 29.85 840 24.81 19.5 67.1 23 -1.9 28.5
01:40 1011 29.85 840 24.81 19.5 67.1 22 -2.7 27.1
01:45 1011 29.85 840 24.81 19.5 67.2 28 0.7 33.3
01:50 1011 29.85 840 24.81 19.5 67.2 21 -3.3 26.1
01:55 1011 29.85 840 24.81 19.9 67.7 20 -3.6 25.5
02:00 1011 29.85 840 24.81 19.9 67.7 21 -2.7 27.2
02:05 1011 29.85 840 24.81 19.6 67.2 21 -3.2 26.3
02:10 1011 29.85 840 24.81 19.8 67.7 20 -3.9 25
02:15 1011 29.85 840 24.81 20 68.1 19 -4.2 24.4
02:20 1011 29.85 840 24.81 20 68.1 20 -3.4 25.9
02:25 1011 29.85 840 24.81 19.6 67.3 20 -3.9 25
02:30 1011 29.85 840 24.81 19.6 67.2 21 -3.3 26.1
02:35 1011 29.85 840 24.81 18.9 66 30 1.1 34
02:40 1011 29.85 840 24.81 18.3 64.9 22 -3.5 25.7
02:45 1011 29.85 840 24.81 18.4 65.2 22 -3.4 25.8
02:50 1011 29.85 840 24.81 18.8 65.9 23 -2.5 27.4
02:55 1011 29.85 840 24.81 18.2 64.8 22 -3.6 25.5
03:00 1011 29.85 840 24.81 18.5 65.3 23 -3.1 26.5
03:05 1010 29.83 840 24.81 18.1 64.6 23 -3.1 26.5
03:10 1010 29.83 840 24.81 18.2 64.8 23 -3.3 26.1
03:15 1010 29.83 840 24.81 17.8 64 23 -3.3 26.1
03:20 1010 29.83 840 24.81 17.8 64 23 -3.7 25.3
03:25 1010 29.83 840 24.81 17.8 64 22 -4.3 24.3
03:30 1010 29.83 840 24.81 18.4 65.1 21 -4.1 24.7
03:35 1010 29.83 840 24.81 18.8 65.8 21 -3.9 24.9
03:40 1010 29.83 840 24.81 18.3 65 23 -2.8 26.9
03:45 1010 29.83 840 24.81 17.4 63.2 24 -3.1 26.3
03:50 1010 29.83 840 24.81 17.1 62.7 24 -3.5 25.7
03:55 1010 29.83 839 24.78 17.1 62.8 24 -3.4 25.9
04:00 1010 29.83 839 24.78 17.1 62.8 25 -2.9 26.9
04:05 1010 29.83 839 24.78 16.7 62.1 25 -3.1 26.5
04:10 1010 29.83 839 24.78 16 60.8 30 -1.2 29.8
04:15 1010 29.83 839 24.78 15.9 60.7 25 -3.8 25.2
04:20 1010 29.83 839 24.78 16.5 61.7 25 -3.6 25.6
04:25 1010 29.83 839 24.78 16.9 62.4 23 -4.2 24.5
04:30 1010 29.83 839 24.78 17 62.6 24 -3.7 25.3
04:35 1010 29.83 839 24.78 17.2 62.9 23 -4.3 24.3
04:40 1010 29.83 839 24.78 17.1 62.7 24 -3.7 25.4
04:45 1010 29.83 839 24.78 16.9 62.4 23 -4.2 24.4
04:50 1010 29.83 839 24.78 17.1 62.7 23 -4.3 24.3
04:55 1010 29.83 839 24.78 17.1 62.7 23 -4 24.7
05:00 1010 29.83 839 24.78 16.7 62 29 -1.5 29.2
05:05 1010 29.83 839 24.78 16.2 61.2 27 -2.6 27.4
05:10 1010 29.83 839 24.78 16.2 61.2 24 -4.5 23.9
05:15 1010 29.83 839 24.78 16.5 61.6 24 -4.1 24.5
05:20 1010 29.83 839 24.78 16.4 61.5 22 -5 23
05:25 1010 29.83 840 24.81 16.6 61.9 23 -4.7 23.6
05:30 1010 29.83 840 24.81 17 62.7 22 -4.9 23.2
05:35 1010 29.83 840 24.81 17.1 62.8 23 -4 24.8
05:40 1010 29.83 840 24.81 17 62.6 22 -4.7 23.5
05:45 1010 29.83 840 24.81 17.1 62.7 22 -4.4 24
05:50 1010 29.83 840 24.81 16.6 61.8 25 -3.6 25.6
05:55 1010 29.83 840 24.81 16 60.8 25 -3.9 24.9
06:00 1010 29.83 840 24.81 15.5 59.9 27 -3.3 26
06:05 1010 29.83 840 24.81 15.3 59.6 26 -4.1 24.6
06:10 1010 29.83 840 24.81 15.7 60.2 25 -4.4 24.1
06:15 1010 29.83 840 24.81 16.1 61 24 -4.1 24.6
06:20 1010 29.83 840 24.81 15.9 60.6 25 -3.9 24.9
06:25 1010 29.83 840 24.81 16 60.7 24 -4.5 24
06:30 1010 29.83 840 24.81 16.4 61.6 28 -2.3 27.9
06:35 1010 29.83 840 24.81 16.6 61.8 22 -5.3 22.5
06:40 1010 29.83 840 24.81 16.9 62.3 23 -4.5 23.9
06:45 1010 29.83 840 24.81 16.1 61 26 -3.1 26.4
06:50 1010 29.83 840 24.81 15 59 28 -3.2 26.2
06:55 1010 29.83 840 24.81 14.4 57.8 28 -4 24.8
07:00 1010 29.83 840 24.81 14.9 58.9 25 -4.8 23.4
07:05 1010 29.83 840 24.81 15.2 59.4 27 -3.5 25.7
07:10 1010 29.83 840 24.81 14.8 58.7 25 -4.9 23.2
07:15 1011 29.85 840 24.81 16 60.8 23 -4.8 23.4
07:20 1011 29.85 840 24.81 15.4 59.6 29 -2.4 27.6
07:25 1011 29.85 840 24.81 14.6 58.2 27 -3.9 25
07:30 1011 29.85 840 24.81 14.6 58.3 28 -3.7 25.4
07:35 1011 29.85 840 24.81 14.9 58.8 29 -2.8 27
07:40 1011 29.85 840 24.81 15 59 30 -2.3 27.9
07:45 1011 29.85 840 24.81 15 59 31 -1.7 28.9
07:50 1011 29.85 840 24.81 15 59.1 37 0.4 32.7
07:55 1011 29.85 840 24.81 15.1 59.1 32 -1.3 29.7
08:00 1011 29.85 840 24.81 14.5 58 35 -0.5 31
08:05 1011 29.85 840 24.81 14.6 58.3 37 0.1 32.2
08:10 1011 29.85 840 24.81 15.4 59.7 34 -0.2 31.6
08:15 1011 29.85 840 24.81 15.4 59.6 36 0.4 32.7
08:20 1011 29.85 840 24.81 16.1 61 32 -0.7 30.8
08:25 1011 29.85 840 24.81 16.6 61.8 32 0.1 32.1
08:30 1011 29.85 840 24.81 16.9 62.3 37 2.2 35.9
08:35 1011 29.85 840 24.81 17.7 63.9 30 -0.2 31.7
08:40 1011 29.85 840 24.81 18.1 64.6 32 1.2 34.1
08:45 1011 29.85 840 24.81 18.2 64.8 29 0.2 32.4
08:50 1011 29.85 840 24.81 18.4 65.1 29 0.1 32.1
08:55 1011 29.85 840 24.81 19.1 66.4 25 -1.3 29.7
09:00 1011 29.85 840 24.81 19.7 67.5 25 -0.7 30.7
09:05 1011 29.85 841 24.83 20.2 68.4 26 0 32
09:10 1011 29.85 841 24.83 19.7 67.5 26 0 32.1
09:15 1011 29.85 840 24.81 19.6 67.3 27 0.1 32.2
09:20 1011 29.85 841 24.83 20.1 68.2 25 -0.3 31.5
09:25 1011 29.85 840 24.81 20.2 68.3 26 0.4 32.7
09:30 1011 29.85 841 24.83 19.7 67.4 27 0.4 32.8
09:35 1011 29.85 841 24.83 19.5 67.2 27 0.1 32.1
09:40 1011 29.85 841 24.83 19.8 67.6 30 1.7 35.1
09:45 1011 29.85 841 24.83 19.4 67 30 1.3 34.4
09:50 1011 29.85 841 24.83 19.1 66.4 29 1 33.8
09:55 1012 29.88 841 24.83 19.6 67.2 28 0.6 33.1
10:00 1012 29.88 841 24.83 20.6 69.1 26 0.8 33.4
10:05 1012 29.88 841 24.83 20.5 69 26 0.4 32.6
10:10 1012 29.88 841 24.83 21.5 70.6 24 0.5 32.9
10:15 1012 29.88 841 24.83 21.9 71.3 25 1 33.9
10:20 1012 29.88 841 24.83 21.7 71 25 1.2 34.1
10:25 1012 29.88 841 24.83 22.1 71.8 25 1.2 34.1
10:30 1012 29.88 841 24.83 21.8 71.2 26 1.5 34.7
10:35 1012 29.88 841 24.83 22 71.5 26 1.6 34.9
10:40 1012 29.88 841 24.83 21.8 71.2 24 0.7 33.3
10:45 1012 29.88 841 24.83 22.2 72 23 0.2 32.4
10:50 1011 29.85 841 24.83 22.5 72.5 24 1.1 34
10:55 1011 29.85 841 24.83 22.9 73.1 23 0.6 33.1
11:00 1011 29.85 841 24.83 23.2 73.7 23 1.1 34
11:05 1012 29.88 841 24.83 23.2 73.7 24 1.9 35.4
11:10 1011 29.85 841 24.83 23.1 73.6 23 1.2 34.2
11:15 1011 29.85 841 24.83 23 73.4 24 1.3 34.3
11:20 1011 29.85 841 24.83 22.7 72.8 23 0.8 33.5
11:25 1011 29.85 840 24.81 22.4 72.3 25 1.5 34.8
11:30 1011 29.85 840 24.81 23.6 74.6 23 1.8 35.2
11:35 1011 29.85 840 24.81 24.3 75.8 22 1.5 34.7
11:40 1011 29.85 840 24.81 24.3 75.7 23 2.1 35.8
11:45 1011 29.85 840 24.81 24.4 75.8 23 2.3 36.2
11:50 1011 29.85 840 24.81 23.8 74.8 25 2.6 36.7
11:55 1011 29.85 840 24.81 23.4 74.1 25 2.4 36.3
12:00 1011 29.85 840 24.81 23 73.5 25 2 35.7
12:05 1011 29.85 840 24.81 23.7 74.7 24 2.3 36.1
12:10 1011 29.85 840 24.81 23.9 75 24 2.1 35.8
12:15 1011 29.85 840 24.81 23.3 74 23 1.2 34.2
12:20 1011 29.85 840 24.81 23.7 74.6 23 1.3 34.3
12:25 1011 29.85 840 24.81 24.2 75.6 21 0.7 33.3
12:30 1011 29.85 840 24.81 24.6 76.3 20 0.6 33
12:35 1011 29.85 840 24.81 23.9 75 22 1 33.8
12:40 1011 29.85 840 24.81 24 75.1 21 0.8 33.5
12:45 1011 29.85 840 24.81 24.4 75.8 22 1.2 34.2
12:50 1011 29.85 840 24.81 24.7 76.4 21 1.1 33.9
12:55 1011 29.85 840 24.81 25.4 77.6 20 1.2 34.1
13:00 1011 29.85 840 24.81 25.8 78.5 20 1.2 34.2
13:05 1011 29.85 840 24.81 26.2 79.1 20 1.7 35.1
13:10 1011 29.85 840 24.81 25.9 78.6 19 1 33.8
13:15 1011 29.85 840 24.81 26 78.7 20 1.5 34.7
13:20 1010 29.83 840 24.81 25.6 78 20 1.3 34.3
13:25 1010 29.83 840 24.81 25.3 77.5 21 1.7 35.1
13:30 1011 29.85 840 24.81 25.5 77.9 19 0.6 33.1
13:35 1010 29.83 840 24.81 25.5 77.9 20 1.2 34.1
13:40 1010 29.83 840 24.81 25.3 77.5 21 1.5 34.7
13:45 1010 29.83 840 24.81 24.9 76.9 22 1.7 35.1
13:50 1010 29.83 839 24.78 25.3 77.5 20 1.1 34
13:55 1010 29.83 839 24.78 25.3 77.5 22 2 35.7
14:00 1010 29.83 839 24.78 25.9 78.6 21 2.2 36
14:05 1010 29.83 839 24.78 25.8 78.5 23 3.5 38.2
14:10 1010 29.83 839 24.78 25.6 78.2 23 3.3 38
14:15 1010 29.83 839 24.78 25.5 78 22 2.8 37
14:20 1010 29.83 839 24.78 24.4 75.8 22 1.6 34.8
14:25 1010 29.83 839 24.78 24.1 75.3 22 1.1 34
14:30 1010 29.83 839 24.78 24.9 76.8 20 0.7 33.2
14:35 1010 29.83 839 24.78 25.6 78.1 19 0.4 32.7
14:40 1010 29.83 839 24.78 25.7 78.3 19 0.7 33.3
14:45 1010 29.83 839 24.78 25.7 78.3 19 0.3 32.6
14:50 1010 29.83 839 24.78 26.4 79.6 18 0.6 33
14:55 1010 29.83 839 24.78 27.4 81.3 16 -0.1 31.8
15:00 1009 29.8 839 24.78 27.7 81.8 16 -0.1 31.8
15:05 1009 29.8 839 24.78 27.4 81.3 17 0.8 33.5
15:10 1009 29.8 839 24.78 27 80.6 17 0.4 32.6
15:15 1009 29.8 838 24.75 27.7 81.9 16 -0.3 31.5
15:20 1009 29.8 838 24.75 28.2 82.7 15 -0.6 30.9
15:25 1009 29.8 838 24.75 28.4 83.1 16 0.4 32.7
15:30 1009 29.8 838 24.75 28.2 82.8 16 0.4 32.7
15:35 1009 29.8 838 24.75 27.7 81.9 15 -1.2 29.9
15:40 1009 29.8 838 24.75 27.5 81.5 16 -0.7 30.8
15:45 1009 29.8 838 24.75 27.6 81.7 16 -0.4 31.3
15:50 1009 29.8 838 24.75 27.4 81.2 16 -0.3 31.4
15:55 1009 29.8 838 24.75 27.4 81.3 16 -0.8 30.6
16:00 1009 29.8 838 24.75 27.5 81.4 14 -1.7 29
16:05 1008 29.77 838 24.75 26.8 80.2 15 -1.3 29.7
16:10 1008 29.77 838 24.75 26.5 79.7 15 -1.9 28.6
16:15 1008 29.77 838 24.75 26.6 79.9 12 -5.4 22.2
16:20 1008 29.77 837 24.72 27 80.6 13 -3 26.6
16:25 1008 29.77 837 24.72 26.4 79.5 15 -2.4 27.6
16:30 1008 29.77 837 24.72 26.3 79.4 13 -3.7 25.4
16:35 1008 29.77 837 24.72 26.2 79.2 14 -3.1 26.4
16:40 1008 29.77 838 24.75 26.3 79.3 12 -4.8 23.4
16:45 1008 29.77 837 24.72 26.4 79.5 12 -5.1 22.8
16:50 1008 29.77 838 24.75 26.3 79.4 15 -2.4 27.8
16:55 1008 29.77 838 24.75 25.9 78.6 14 -3.2 26.3
17:00 1008 29.77 838 24.75 25.8 78.4 16 -2 28.4
17:05 1008 29.77 838 24.75 25.6 78 15 -2.4 27.7
17:10 1009 29.8 838 24.75 25.6 78 14 -3.8 25.1
17:15 1009 29.8 838 24.75 25.8 78.4 13 -4.8 23.4
17:20 1009 29.8 838 24.75 25.7 78.2 15 -2.4 27.6
17:25 1009 29.8 838 24.75 24.2 75.6 26 3.8 38.8
17:30 1009 29.8 838 24.75 21.9 71.5 30 3.9 39.1
17:35 1009 29.8 838 24.75 20.5 68.9 32 3.3 37.9
17:40 1009 29.8 839 24.78 20.1 68.2 32 2.9 37.2
17:45 1010 29.83 839 24.78 20 67.9 31 2.5 36.5
17:50 1010 29.83 839 24.78 19.7 67.5 32 2.5 36.6
17:55 1010 29.83 840 24.81 19.4 67 31 2.2 35.9
18:00 1010 29.83 840 24.81 18.7 65.7 33 2.2 36
18:05 1010 29.83 840 24.81 18.1 64.5 34 2.1 35.7
18:10 1011 29.85 840 24.81 17.5 63.5 35 1.8 35.3
18:15 1011 29.85 840 24.81 17.3 63.2 35 1.8 35.2
18:20 1011 29.85 840 24.81 17.4 63.3 35 1.8 35.2
18:25 1011 29.85 840 24.81 17.5 63.6 35 1.9 35.3
18:30 1012 29.88 841 24.83 17.4 63.3 35 1.9 35.4
18:35 1012 29.88 841 24.83 17.3 63.1 35 1.9 35.4
18:40 1012 29.88 841 24.83 17 62.6 36 2 35.7
18:45 1012 29.88 842 24.86 17 62.5 35 1.7 35
18:50 1013 29.91 842 24.86 16.8 62.3 36 1.7 35.1
18:55 1013 29.91 842 24.86 16.6 61.8 37 1.9 35.4
19:00 1013 29.91 843 24.89 16.4 61.6 37 2 35.5
19:05 1014 29.94 843 24.89 16.4 61.4 37 1.9 35.3
19:10 1014 29.94 843 24.89 16.4 61.5 38 2 35.6
19:15 1014 29.94 843 24.89 16.4 61.4 40 2.9 37.2
19:20 1014 29.94 843 24.89 15.9 60.7 41 2.7 36.9
19:25 1014 29.94 844 24.92 15.4 59.8 41 2.5 36.4
19:30 1015 29.97 844 24.92 15.2 59.3 42 2.5 36.5
19:35 1015 29.97 844 24.92 15.2 59.3 42 2.4 36.3
19:40 1015 29.97 844 24.92 15.1 59.2 43 2.7 36.8
19:45 1015 29.97 845 24.95 14.7 58.4 43 2.3 36.2
19:50 1016 30 845 24.95 14.4 57.8 44 2.4 36.3
19:55 1016 30 845 24.95 13.8 56.9 46 2.3 36.2
20:00 1016 30 845 24.95 13.4 56.1 47 2.5 36.5
20:05 1017 30.03 846 24.98 13 55.4 49 2.7 36.9
20:10 1017 30.03 846 24.98 12.7 54.8 52 3 37.5
20:15 1017 30.03 846 24.98 12.2 54 53 3.1 37.5
20:20 1017 30.03 847 25.01 12 53.6 54 3.1 37.6
20:25 1018 30.06 847 25.01 11.8 53.2 55 3.1 37.6
20:30 1018 30.06 847 25.01 11.6 52.9 58 3.7 38.7
20:35 1018 30.06 847 25.01 11.5 52.6 57 3.3 38
20:40 1018 30.06 847 25.01 11.2 52.2 59 3.5 38.3
20:45 1019 30.09 848 25.04 11.1 51.9 59 3.5 38.3
20:50 1019 30.09 848 25.04 10.9 51.6 61 3.7 38.6
20:55 1019 30.09 848 25.04 10.6 51 65 4.2 39.6
21:00 1019 30.09 848 25.04 10.2 50.4 68 4.6 40.2
21:05 1019 30.09 848 25.04 9.8 49.7 69 4.5 40
21:10 1019 30.09 849 25.07 9.4 48.9 73 4.9 40.8
21:15 1020 30.12 849 25.07 9 48.2 78 5.5 41.8
21:20 1020 30.12 849 25.07 8.6 47.4 81 5.5 41.9
21:25 1020 30.12 849 25.07 8.5 47.4 81 5.5 41.9
21:30 1020 30.12 849 25.07 8.5 47.3 82 5.5 41.9
21:35 1020 30.12 849 25.07 8.4 47.1 82 5.5 41.9
21:40 1020 30.12 849 25.07 8.4 47 83 5.6 42.1
21:45 1020 30.12 849 25.07 8.4 47.1 84 5.8 42.4
21:50 1020 30.12 849 25.07 8.2 46.7 83 5.5 41.8
21:55 1020 30.12 849 25.07 8 46.4 83 5.4 41.6
22:00 1020 30.12 849 25.07 7.7 45.9 84 5.1 41.2
22:05 1020 30.12 849 25.07 7.7 45.8 84 5.1 41.2
22:10 1020 30.12 849 25.07 8 46.5 83 5.3 41.5
22:15 1020 30.12 849 25.07 8.2 46.7 82 5.3 41.6
22:20 1020 30.12 849 25.07 8.3 46.9 81 5.1 41.2
22:25 1020 30.12 850 25.1 7.9 46.3 83 5.2 41.3
22:30 1021 30.15 850 25.1 7.7 45.9 84 5.3 41.5
22:35 1020 30.12 850 25.1 7.7 45.8 87 5.6 42.1
22:40 1021 30.15 850 25.1 7.6 45.6 88 5.8 42.4
22:45 1021 30.15 850 25.1 7.4 45.3 87 5.5 41.8
22:50 1021 30.15 850 25.1 7.5 45.4 86 5.2 41.4
22:55 1021 30.15 850 25.1 7.4 45.2 87 5.3 41.5
23:00 1021 30.15 850 25.1 7.4 45.2 88 5.5 41.8
23:05 1021 30.15 850 25.1 7.3 45.2 87 5.3 41.5
23:10 1021 30.15 850 25.1 7.4 45.3 87 5.3 41.6
23:15 1021 30.15 850 25.1 7.5 45.5 86 5.3 41.6
23:20 1021 30.15 850 25.1 7.5 45.4 84 5 41
23:25 1021 30.15 850 25.1 7.6 45.6 86 5.4 41.8
23:30 1021 30.15 850 25.1 7.7 45.8 86 5.4 41.7
23:35 1021 30.15 850 25.1 7.6 45.7 86 5.3 41.6
23:40 1021 30.15 850 25.1 7.7 45.8 85 5.3 41.5
23:45 1021 30.15 850 25.1 7.9 46.3 84 5.4 41.6
23:50 1021 30.15 850 25.1 7.9 46.2 82 5 40.9
23:55 1021 30.15 850 25.1 7.9 46.2 83 5.1 41.2
24:00 1021 30.15 850 25.1 8.1 46.6 81 5 41